sensor_id;sensor_type;location;lat;lon;timestamp;P1;durP1;ratioP1;P2;durP2;ratioP2
16822;SDS011;8528;49.976;11.858;2023-02-28T00:00:34;6.27;;;3.63;;
16822;SDS011;8528;49.976;11.858;2023-02-28T00:03:02;6.93;;;3.90;;
16822;SDS011;8528;49.976;11.858;2023-02-28T00:05:29;5.00;;;4.00;;
16822;SDS011;8528;49.976;11.858;2023-02-28T00:07:56;5.57;;;4.30;;
16822;SDS011;8528;49.976;11.858;2023-02-28T00:10:27;6.97;;;4.10;;
16822;SDS011;8528;49.976;11.858;2023-02-28T00:13:00;8.50;;;4.63;;
16822;SDS011;8528;49.976;11.858;2023-02-28T00:15:31;5.97;;;3.97;;
16822;SDS011;8528;49.976;11.858;2023-02-28T00:17:58;6.70;;;4.60;;
16822;SDS011;8528;49.976;11.858;2023-02-28T00:20:25;6.10;;;4.97;;
16822;SDS011;8528;49.976;11.858;2023-02-28T00:22:53;8.07;;;4.80;;
16822;SDS011;8528;49.976;11.858;2023-02-28T00:25:21;8.77;;;4.87;;
16822;SDS011;8528;49.976;11.858;2023-02-28T00:27:49;8.70;;;4.97;;
16822;SDS011;8528;49.976;11.858;2023-02-28T00:30:18;7.63;;;4.20;;
16822;SDS011;8528;49.976;11.858;2023-02-28T00:32:46;9.23;;;4.30;;
16822;SDS011;8528;49.976;11.858;2023-02-28T00:35:13;6.70;;;4.67;;
16822;SDS011;8528;49.976;11.858;2023-02-28T00:37:40;9.17;;;5.00;;
16822;SDS011;8528;49.976;11.858;2023-02-28T00:40:08;7.73;;;4.63;;
16822;SDS011;8528;49.976;11.858;2023-02-28T00:42:36;7.73;;;5.10;;
16822;SDS011;8528;49.976;11.858;2023-02-28T00:45:03;8.53;;;5.10;;
16822;SDS011;8528;49.976;11.858;2023-02-28T00:47:31;8.73;;;5.67;;
16822;SDS011;8528;49.976;11.858;2023-02-28T00:49:58;8.83;;;5.10;;
16822;SDS011;8528;49.976;11.858;2023-02-28T00:52:26;7.03;;;5.20;;
16822;SDS011;8528;49.976;11.858;2023-02-28T00:54:53;9.30;;;5.00;;
16822;SDS011;8528;49.976;11.858;2023-02-28T00:57:20;7.50;;;4.87;;
16822;SDS011;8528;49.976;11.858;2023-02-28T00:59:47;9.20;;;5.67;;
16822;SDS011;8528;49.976;11.858;2023-02-28T01:02:14;8.20;;;6.13;;
16822;SDS011;8528;49.976;11.858;2023-02-28T01:04:41;8.83;;;5.43;;
16822;SDS011;8528;49.976;11.858;2023-02-28T01:07:08;10.20;;;5.63;;
16822;SDS011;8528;49.976;11.858;2023-02-28T01:09:35;9.17;;;5.97;;
16822;SDS011;8528;49.976;11.858;2023-02-28T01:12:02;8.47;;;5.10;;
16822;SDS011;8528;49.976;11.858;2023-02-28T01:14:29;8.70;;;5.70;;
16822;SDS011;8528;49.976;11.858;2023-02-28T01:16:56;9.43;;;5.70;;
16822;SDS011;8528;49.976;11.858;2023-02-28T01:19:22;7.37;;;5.73;;
16822;SDS011;8528;49.976;11.858;2023-02-28T01:21:49;7.17;;;5.10;;
16822;SDS011;8528;49.976;11.858;2023-02-28T01:24:16;6.07;;;4.53;;
16822;SDS011;8528;49.976;11.858;2023-02-28T01:26:43;7.50;;;4.87;;
16822;SDS011;8528;49.976;11.858;2023-02-28T01:29:10;7.57;;;4.87;;
16822;SDS011;8528;49.976;11.858;2023-02-28T01:31:37;7.97;;;4.90;;
16822;SDS011;8528;49.976;11.858;2023-02-28T01:34:03;6.90;;;4.83;;
16822;SDS011;8528;49.976;11.858;2023-02-28T01:36:30;8.40;;;5.10;;
16822;SDS011;8528;49.976;11.858;2023-02-28T01:38:57;10.57;;;5.40;;
16822;SDS011;8528;49.976;11.858;2023-02-28T01:41:26;9.43;;;5.53;;
16822;SDS011;8528;49.976;11.858;2023-02-28T01:44:03;7.73;;;5.17;;
16822;SDS011;8528;49.976;11.858;2023-02-28T01:46:34;10.20;;;5.23;;
16822;SDS011;8528;49.976;11.858;2023-02-28T01:49:06;10.67;;;5.10;;
16822;SDS011;8528;49.976;11.858;2023-02-28T01:51:46;9.90;;;5.20;;
16822;SDS011;8528;49.976;11.858;2023-02-28T01:54:21;10.07;;;5.93;;
16822;SDS011;8528;49.976;11.858;2023-02-28T01:56:55;10.43;;;5.33;;
16822;SDS011;8528;49.976;11.858;2023-02-28T01:59:45;9.87;;;5.53;;
16822;SDS011;8528;49.976;11.858;2023-02-28T02:02:20;8.30;;;5.53;;
16822;SDS011;8528;49.976;11.858;2023-02-28T02:04:59;9.73;;;5.53;;
16822;SDS011;8528;49.976;11.858;2023-02-28T02:07:37;9.17;;;5.23;;
16822;SDS011;8528;49.976;11.858;2023-02-28T02:18:40;9.07;;;5.47;;
16822;SDS011;8528;49.976;11.858;2023-02-28T02:21:16;8.13;;;5.63;;
16822;SDS011;8528;49.976;11.858;2023-02-28T02:37:52;9.77;;;5.73;;
16822;SDS011;8528;49.976;11.858;2023-02-28T02:40:38;12.40;;;5.77;;
16822;SDS011;8528;49.976;11.858;2023-02-28T02:43:30;9.00;;;5.47;;
16822;SDS011;8528;49.976;11.858;2023-02-28T02:46:04;9.83;;;5.50;;
16822;SDS011;8528;49.976;11.858;2023-02-28T02:48:39;11.63;;;5.83;;
16822;SDS011;8528;49.976;11.858;2023-02-28T02:51:10;8.67;;;5.37;;
16822;SDS011;8528;49.976;11.858;2023-02-28T02:53:53;9.30;;;5.63;;
16822;SDS011;8528;49.976;11.858;2023-02-28T02:56:25;7.17;;;5.47;;
16822;SDS011;8528;49.976;11.858;2023-02-28T02:58:55;13.27;;;6.77;;
16822;SDS011;8528;49.976;11.858;2023-02-28T03:01:27;10.53;;;5.83;;
16822;SDS011;8528;49.976;11.858;2023-02-28T03:03:57;10.20;;;5.67;;
16822;SDS011;8528;49.976;11.858;2023-02-28T03:06:27;12.57;;;5.40;;
16822;SDS011;8528;49.976;11.858;2023-02-28T03:08:54;8.03;;;5.17;;
16822;SDS011;8528;49.976;11.858;2023-02-28T03:11:21;10.50;;;5.73;;
16822;SDS011;8528;49.976;11.858;2023-02-28T03:13:52;9.40;;;5.63;;
16822;SDS011;8528;49.976;11.858;2023-02-28T03:24:53;8.17;;;5.77;;
16822;SDS011;8528;49.976;11.858;2023-02-28T03:27:55;11.93;;;7.07;;
16822;SDS011;8528;49.976;11.858;2023-02-28T03:30:33;12.53;;;5.90;;
16822;SDS011;8528;49.976;11.858;2023-02-28T03:33:27;9.67;;;6.03;;
16822;SDS011;8528;49.976;11.858;2023-02-28T03:35:59;13.43;;;6.67;;
16822;SDS011;8528;49.976;11.858;2023-02-28T03:38:40;11.67;;;6.70;;
16822;SDS011;8528;49.976;11.858;2023-02-28T03:41:29;12.00;;;6.40;;
16822;SDS011;8528;49.976;11.858;2023-02-28T03:44:12;12.33;;;7.20;;
16822;SDS011;8528;49.976;11.858;2023-02-28T03:46:44;12.00;;;6.40;;
16822;SDS011;8528;49.976;11.858;2023-02-28T03:52:51;12.20;;;7.07;;
16822;SDS011;8528;49.976;11.858;2023-02-28T03:55:32;11.20;;;7.20;;
16822;SDS011;8528;49.976;11.858;2023-02-28T04:00:47;11.27;;;6.43;;
16822;SDS011;8528;49.976;11.858;2023-02-28T04:03:19;11.00;;;6.60;;
16822;SDS011;8528;49.976;11.858;2023-02-28T04:05:47;12.70;;;7.40;;
16822;SDS011;8528;49.976;11.858;2023-02-28T04:08:21;11.60;;;6.70;;
16822;SDS011;8528;49.976;11.858;2023-02-28T04:10:56;16.27;;;7.40;;
16822;SDS011;8528;49.976;11.858;2023-02-28T04:13:32;13.20;;;7.37;;
16822;SDS011;8528;49.976;11.858;2023-02-28T04:15:59;13.77;;;7.13;;
16822;SDS011;8528;49.976;11.858;2023-02-28T04:18:26;14.07;;;7.53;;
16822;SDS011;8528;49.976;11.858;2023-02-28T04:20:53;14.00;;;7.70;;
16822;SDS011;8528;49.976;11.858;2023-02-28T04:23:20;12.77;;;7.20;;
16822;SDS011;8528;49.976;11.858;2023-02-28T04:25:46;13.20;;;7.77;;
16822;SDS011;8528;49.976;11.858;2023-02-28T04:28:13;20.17;;;8.10;;
16822;SDS011;8528;49.976;11.858;2023-02-28T04:30:40;13.23;;;6.77;;
16822;SDS011;8528;49.976;11.858;2023-02-28T04:33:07;12.93;;;7.67;;
16822;SDS011;8528;49.976;11.858;2023-02-28T04:35:34;13.03;;;7.83;;
16822;SDS011;8528;49.976;11.858;2023-02-28T04:38:01;11.47;;;7.13;;
16822;SDS011;8528;49.976;11.858;2023-02-28T04:40:28;13.47;;;7.73;;
16822;SDS011;8528;49.976;11.858;2023-02-28T04:42:54;13.30;;;7.37;;
16822;SDS011;8528;49.976;11.858;2023-02-28T04:45:21;13.90;;;7.73;;
16822;SDS011;8528;49.976;11.858;2023-02-28T04:47:48;13.67;;;7.87;;
16822;SDS011;8528;49.976;11.858;2023-02-28T04:50:15;12.83;;;7.00;;
16822;SDS011;8528;49.976;11.858;2023-02-28T04:52:41;19.40;;;8.10;;
16822;SDS011;8528;49.976;11.858;2023-02-28T04:55:08;13.93;;;8.47;;
16822;SDS011;8528;49.976;11.858;2023-02-28T04:57:35;13.63;;;7.27;;
16822;SDS011;8528;49.976;11.858;2023-02-28T05:00:03;11.97;;;7.10;;
16822;SDS011;8528;49.976;11.858;2023-02-28T05:02:34;15.67;;;8.33;;
16822;SDS011;8528;49.976;11.858;2023-02-28T05:05:01;12.70;;;7.67;;
16822;SDS011;8528;49.976;11.858;2023-02-28T05:07:28;12.23;;;7.23;;
16822;SDS011;8528;49.976;11.858;2023-02-28T05:09:55;13.00;;;7.57;;
16822;SDS011;8528;49.976;11.858;2023-02-28T05:12:22;12.57;;;7.53;;
16822;SDS011;8528;49.976;11.858;2023-02-28T05:14:49;14.00;;;8.00;;
16822;SDS011;8528;49.976;11.858;2023-02-28T05:17:16;16.00;;;8.47;;
16822;SDS011;8528;49.976;11.858;2023-02-28T05:19:42;14.80;;;7.77;;
16822;SDS011;8528;49.976;11.858;2023-02-28T05:22:13;13.03;;;8.07;;
16822;SDS011;8528;49.976;11.858;2023-02-28T05:24:42;13.77;;;8.07;;
16822;SDS011;8528;49.976;11.858;2023-02-28T05:27:09;14.43;;;8.00;;
16822;SDS011;8528;49.976;11.858;2023-02-28T05:29:36;14.70;;;8.13;;
16822;SDS011;8528;49.976;11.858;2023-02-28T05:32:11;12.13;;;7.67;;
16822;SDS011;8528;49.976;11.858;2023-02-28T05:34:38;14.03;;;7.47;;
16822;SDS011;8528;49.976;11.858;2023-02-28T05:37:06;13.50;;;8.00;;
16822;SDS011;8528;49.976;11.858;2023-02-28T05:39:37;11.07;;;7.10;;
16822;SDS011;8528;49.976;11.858;2023-02-28T05:42:05;15.93;;;8.03;;
16822;SDS011;8528;49.976;11.858;2023-02-28T05:44:33;12.63;;;7.63;;
16822;SDS011;8528;49.976;11.858;2023-02-28T05:47:00;13.50;;;7.70;;
16822;SDS011;8528;49.976;11.858;2023-02-28T05:49:27;14.13;;;7.23;;
16822;SDS011;8528;49.976;11.858;2023-02-28T05:51:53;13.67;;;7.50;;
16822;SDS011;8528;49.976;11.858;2023-02-28T05:54:20;10.80;;;7.23;;
16822;SDS011;8528;49.976;11.858;2023-02-28T05:56:47;11.70;;;7.63;;
16822;SDS011;8528;49.976;11.858;2023-02-28T05:59:14;10.63;;;7.07;;
16822;SDS011;8528;49.976;11.858;2023-02-28T06:01:42;12.97;;;7.90;;
16822;SDS011;8528;49.976;11.858;2023-02-28T06:04:17;14.87;;;8.17;;
16822;SDS011;8528;49.976;11.858;2023-02-28T06:06:56;14.73;;;8.83;;
16822;SDS011;8528;49.976;11.858;2023-02-28T06:09:23;12.13;;;7.40;;
16822;SDS011;8528;49.976;11.858;2023-02-28T06:11:51;15.83;;;8.63;;
16822;SDS011;8528;49.976;11.858;2023-02-28T06:14:18;14.20;;;7.67;;
16822;SDS011;8528;49.976;11.858;2023-02-28T06:16:46;15.83;;;9.07;;
16822;SDS011;8528;49.976;11.858;2023-02-28T06:19:13;13.63;;;8.13;;
16822;SDS011;8528;49.976;11.858;2023-02-28T06:21:41;16.93;;;8.90;;
16822;SDS011;8528;49.976;11.858;2023-02-28T06:24:08;15.13;;;8.60;;
16822;SDS011;8528;49.976;11.858;2023-02-28T06:26:35;12.97;;;7.83;;
16822;SDS011;8528;49.976;11.858;2023-02-28T06:29:03;15.70;;;8.60;;
16822;SDS011;8528;49.976;11.858;2023-02-28T06:31:29;14.47;;;7.90;;
16822;SDS011;8528;49.976;11.858;2023-02-28T06:33:57;12.00;;;7.77;;
16822;SDS011;8528;49.976;11.858;2023-02-28T06:36:24;16.83;;;8.57;;
16822;SDS011;8528;49.976;11.858;2023-02-28T06:38:51;11.63;;;7.70;;
16822;SDS011;8528;49.976;11.858;2023-02-28T06:41:24;15.87;;;8.03;;
16822;SDS011;8528;49.976;11.858;2023-02-28T06:43:52;13.73;;;8.47;;
16822;SDS011;8528;49.976;11.858;2023-02-28T06:46:19;18.10;;;8.17;;
16822;SDS011;8528;49.976;11.858;2023-02-28T06:48:46;16.50;;;9.13;;
16822;SDS011;8528;49.976;11.858;2023-02-28T06:51:17;17.80;;;8.97;;
16822;SDS011;8528;49.976;11.858;2023-02-28T06:53:48;13.97;;;7.87;;
16822;SDS011;8528;49.976;11.858;2023-02-28T06:56:15;16.80;;;8.77;;
16822;SDS011;8528;49.976;11.858;2023-02-28T06:58:47;14.40;;;8.70;;
16822;SDS011;8528;49.976;11.858;2023-02-28T07:01:15;17.40;;;9.13;;
16822;SDS011;8528;49.976;11.858;2023-02-28T07:03:42;17.00;;;8.57;;
16822;SDS011;8528;49.976;11.858;2023-02-28T07:06:09;13.47;;;8.63;;
16822;SDS011;8528;49.976;11.858;2023-02-28T07:08:36;13.90;;;8.30;;
16822;SDS011;8528;49.976;11.858;2023-02-28T07:11:03;15.57;;;9.20;;
16822;SDS011;8528;49.976;11.858;2023-02-28T07:13:30;12.53;;;7.80;;
16822;SDS011;8528;49.976;11.858;2023-02-28T07:15:58;14.50;;;8.97;;
16822;SDS011;8528;49.976;11.858;2023-02-28T07:18:27;13.97;;;8.33;;
16822;SDS011;8528;49.976;11.858;2023-02-28T07:20:54;14.47;;;8.90;;
16822;SDS011;8528;49.976;11.858;2023-02-28T07:23:21;15.23;;;8.77;;
16822;SDS011;8528;49.976;11.858;2023-02-28T07:25:49;12.10;;;8.30;;
16822;SDS011;8528;49.976;11.858;2023-02-28T07:28:16;16.63;;;8.90;;
16822;SDS011;8528;49.976;11.858;2023-02-28T07:30:43;12.90;;;8.43;;
16822;SDS011;8528;49.976;11.858;2023-02-28T07:33:24;14.53;;;8.13;;
16822;SDS011;8528;49.976;11.858;2023-02-28T07:36:09;13.13;;;7.57;;
16822;SDS011;8528;49.976;11.858;2023-02-28T07:38:42;13.93;;;8.90;;
16822;SDS011;8528;49.976;11.858;2023-02-28T07:41:14;15.13;;;9.10;;
16822;SDS011;8528;49.976;11.858;2023-02-28T07:43:45;11.80;;;8.90;;
16822;SDS011;8528;49.976;11.858;2023-02-28T07:46:13;12.20;;;7.03;;
16822;SDS011;8528;49.976;11.858;2023-02-28T07:48:42;14.17;;;8.20;;
16822;SDS011;8528;49.976;11.858;2023-02-28T07:51:09;12.30;;;7.77;;
16822;SDS011;8528;49.976;11.858;2023-02-28T07:53:36;12.80;;;7.70;;
16822;SDS011;8528;49.976;11.858;2023-02-28T07:56:03;12.87;;;8.00;;
16822;SDS011;8528;49.976;11.858;2023-02-28T07:58:30;11.40;;;7.93;;
16822;SDS011;8528;49.976;11.858;2023-02-28T08:00:57;14.10;;;7.93;;
16822;SDS011;8528;49.976;11.858;2023-02-28T08:03:34;11.87;;;7.63;;
16822;SDS011;8528;49.976;11.858;2023-02-28T08:06:03;16.23;;;7.53;;
16822;SDS011;8528;49.976;11.858;2023-02-28T08:08:30;12.87;;;7.20;;
16822;SDS011;8528;49.976;11.858;2023-02-28T08:11:01;9.50;;;6.70;;
16822;SDS011;8528;49.976;11.858;2023-02-28T08:16:17;11.53;;;7.30;;
16822;SDS011;8528;49.976;11.858;2023-02-28T08:18:49;9.07;;;6.63;;
16822;SDS011;8528;49.976;11.858;2023-02-28T08:21:17;8.57;;;6.50;;
16822;SDS011;8528;49.976;11.858;2023-02-28T08:23:48;19.30;;;6.93;;
16822;SDS011;8528;49.976;11.858;2023-02-28T08:26:17;7.33;;;6.40;;
16822;SDS011;8528;49.976;11.858;2023-02-28T08:28:44;7.80;;;6.33;;
16822;SDS011;8528;49.976;11.858;2023-02-28T08:31:12;7.80;;;5.77;;
16822;SDS011;8528;49.976;11.858;2023-02-28T08:33:41;7.67;;;5.47;;
16822;SDS011;8528;49.976;11.858;2023-02-28T08:36:09;9.73;;;5.90;;
16822;SDS011;8528;49.976;11.858;2023-02-28T08:38:37;7.53;;;6.00;;
16822;SDS011;8528;49.976;11.858;2023-02-28T08:41:05;9.27;;;6.47;;
16822;SDS011;8528;49.976;11.858;2023-02-28T08:43:33;8.37;;;6.33;;
16822;SDS011;8528;49.976;11.858;2023-02-28T08:46:01;11.07;;;7.00;;
16822;SDS011;8528;49.976;11.858;2023-02-28T08:48:30;7.87;;;6.23;;
16822;SDS011;8528;49.976;11.858;2023-02-28T08:50:59;9.73;;;6.37;;
16822;SDS011;8528;49.976;11.858;2023-02-28T08:53:36;9.60;;;6.40;;
16822;SDS011;8528;49.976;11.858;2023-02-28T08:56:04;11.70;;;6.77;;
16822;SDS011;8528;49.976;11.858;2023-02-28T08:58:36;9.80;;;6.80;;
16822;SDS011;8528;49.976;11.858;2023-02-28T09:01:07;11.10;;;6.97;;
16822;SDS011;8528;49.976;11.858;2023-02-28T09:03:36;10.73;;;7.27;;
16822;SDS011;8528;49.976;11.858;2023-02-28T09:06:03;11.03;;;7.17;;
16822;SDS011;8528;49.976;11.858;2023-02-28T09:08:31;9.27;;;6.53;;
16822;SDS011;8528;49.976;11.858;2023-02-28T09:10:58;11.67;;;7.30;;
16822;SDS011;8528;49.976;11.858;2023-02-28T09:13:27;10.33;;;6.57;;
16822;SDS011;8528;49.976;11.858;2023-02-28T09:15:57;10.70;;;7.40;;
16822;SDS011;8528;49.976;11.858;2023-02-28T09:18:25;11.17;;;7.50;;
16822;SDS011;8528;49.976;11.858;2023-02-28T09:20:52;14.17;;;7.33;;
16822;SDS011;8528;49.976;11.858;2023-02-28T09:23:19;10.07;;;7.00;;
16822;SDS011;8528;49.976;11.858;2023-02-28T09:25:47;8.53;;;6.77;;
16822;SDS011;8528;49.976;11.858;2023-02-28T09:28:15;10.30;;;6.63;;
16822;SDS011;8528;49.976;11.858;2023-02-28T09:30:46;8.93;;;6.43;;
16822;SDS011;8528;49.976;11.858;2023-02-28T09:33:16;7.87;;;5.93;;
16822;SDS011;8528;49.976;11.858;2023-02-28T09:35:43;9.13;;;6.00;;
16822;SDS011;8528;49.976;11.858;2023-02-28T09:38:10;9.97;;;5.90;;
16822;SDS011;8528;49.976;11.858;2023-02-28T09:40:38;7.80;;;5.53;;
16822;SDS011;8528;49.976;11.858;2023-02-28T09:43:12;8.50;;;5.67;;
16822;SDS011;8528;49.976;11.858;2023-02-28T09:45:42;7.43;;;5.50;;
16822;SDS011;8528;49.976;11.858;2023-02-28T09:48:14;6.77;;;5.53;;
16822;SDS011;8528;49.976;11.858;2023-02-28T09:50:48;8.13;;;5.37;;
16822;SDS011;8528;49.976;11.858;2023-02-28T09:53:19;6.23;;;5.50;;
16822;SDS011;8528;49.976;11.858;2023-02-28T09:56:15;7.00;;;5.30;;
16822;SDS011;8528;49.976;11.858;2023-02-28T09:58:46;8.07;;;5.57;;
16822;SDS011;8528;49.976;11.858;2023-02-28T10:04:03;6.17;;;4.93;;
16822;SDS011;8528;49.976;11.858;2023-02-28T10:06:48;7.83;;;5.53;;
16822;SDS011;8528;49.976;11.858;2023-02-28T10:09:26;8.47;;;5.30;;
16822;SDS011;8528;49.976;11.858;2023-02-28T10:11:57;7.97;;;5.53;;
16822;SDS011;8528;49.976;11.858;2023-02-28T10:14:29;7.97;;;5.83;;
16822;SDS011;8528;49.976;11.858;2023-02-28T10:19:43;6.33;;;4.90;;
16822;SDS011;8528;49.976;11.858;2023-02-28T10:22:19;6.63;;;4.97;;
16822;SDS011;8528;49.976;11.858;2023-02-28T10:24:53;7.07;;;5.33;;
16822;SDS011;8528;49.976;11.858;2023-02-28T10:27:23;9.70;;;5.40;;
16822;SDS011;8528;49.976;11.858;2023-02-28T10:29:55;6.33;;;5.10;;
16822;SDS011;8528;49.976;11.858;2023-02-28T10:32:24;6.47;;;4.50;;
16822;SDS011;8528;49.976;11.858;2023-02-28T10:34:59;5.77;;;4.77;;
16822;SDS011;8528;49.976;11.858;2023-02-28T10:37:32;8.77;;;5.60;;
16822;SDS011;8528;49.976;11.858;2023-02-28T10:40:05;8.77;;;5.60;;
16822;SDS011;8528;49.976;11.858;2023-02-28T10:42:32;6.73;;;4.73;;
16822;SDS011;8528;49.976;11.858;2023-02-28T10:45:09;6.47;;;4.60;;
16822;SDS011;8528;49.976;11.858;2023-02-28T10:47:48;14.23;;;5.53;;
16822;SDS011;8528;49.976;11.858;2023-02-28T10:50:26;8.30;;;5.13;;
16822;SDS011;8528;49.976;11.858;2023-02-28T10:52:53;6.07;;;4.90;;
16822;SDS011;8528;49.976;11.858;2023-02-28T10:55:21;6.23;;;5.10;;
16822;SDS011;8528;49.976;11.858;2023-02-28T10:57:51;10.37;;;5.10;;
16822;SDS011;8528;49.976;11.858;2023-02-28T11:00:21;6.77;;;5.00;;
16822;SDS011;8528;49.976;11.858;2023-02-28T11:02:51;7.07;;;4.60;;
16822;SDS011;8528;49.976;11.858;2023-02-28T11:05:25;6.13;;;4.90;;
16822;SDS011;8528;49.976;11.858;2023-02-28T11:07:56;6.53;;;5.47;;
16822;SDS011;8528;49.976;11.858;2023-02-28T11:10:31;8.17;;;5.50;;
16822;SDS011;8528;49.976;11.858;2023-02-28T11:13:01;7.40;;;5.40;;
16822;SDS011;8528;49.976;11.858;2023-02-28T11:15:30;13.53;;;5.83;;
16822;SDS011;8528;49.976;11.858;2023-02-28T11:20:49;11.57;;;5.67;;
16822;SDS011;8528;49.976;11.858;2023-02-28T11:23:18;6.97;;;5.10;;
16822;SDS011;8528;49.976;11.858;2023-02-28T11:25:54;7.80;;;5.33;;
16822;SDS011;8528;49.976;11.858;2023-02-28T11:31:36;8.10;;;5.10;;
16822;SDS011;8528;49.976;11.858;2023-02-28T11:38:54;5.33;;;4.83;;
16822;SDS011;8528;49.976;11.858;2023-02-28T11:47:28;6.43;;;5.00;;
16822;SDS011;8528;49.976;11.858;2023-02-28T11:58:26;5.83;;;5.23;;
16822;SDS011;8528;49.976;11.858;2023-02-28T12:01:06;7.47;;;5.73;;
16822;SDS011;8528;49.976;11.858;2023-02-28T12:03:45;6.90;;;5.10;;
16822;SDS011;8528;49.976;11.858;2023-02-28T12:09:17;6.87;;;5.43;;
16822;SDS011;8528;49.976;11.858;2023-02-28T12:12:02;5.87;;;4.93;;
16822;SDS011;8528;49.976;11.858;2023-02-28T12:28:28;7.17;;;5.43;;
16822;SDS011;8528;49.976;11.858;2023-02-28T12:31:04;7.00;;;5.10;;
16822;SDS011;8528;49.976;11.858;2023-02-28T12:33:41;9.87;;;5.60;;
16822;SDS011;8528;49.976;11.858;2023-02-28T12:36:11;6.63;;;5.30;;
16822;SDS011;8528;49.976;11.858;2023-02-28T12:38:45;7.57;;;5.30;;
16822;SDS011;8528;49.976;11.858;2023-02-28T12:41:40;5.40;;;4.90;;
16822;SDS011;8528;49.976;11.858;2023-02-28T12:44:26;6.37;;;5.47;;
16822;SDS011;8528;49.976;11.858;2023-02-28T12:47:00;6.20;;;5.20;;
16822;SDS011;8528;49.976;11.858;2023-02-28T12:49:33;6.03;;;5.13;;
16822;SDS011;8528;49.976;11.858;2023-02-28T12:52:05;5.80;;;5.20;;
16822;SDS011;8528;49.976;11.858;2023-02-28T12:54:53;7.27;;;5.43;;
16822;SDS011;8528;49.976;11.858;2023-02-28T12:57:36;6.07;;;5.47;;
16822;SDS011;8528;49.976;11.858;2023-02-28T13:00:13;5.60;;;4.97;;
16822;SDS011;8528;49.976;11.858;2023-02-28T13:11:28;6.77;;;5.17;;
16822;SDS011;8528;49.976;11.858;2023-02-28T13:13:57;6.37;;;5.07;;
16822;SDS011;8528;49.976;11.858;2023-02-28T13:16:26;8.53;;;5.63;;
16822;SDS011;8528;49.976;11.858;2023-02-28T13:18:56;5.67;;;5.00;;
16822;SDS011;8528;49.976;11.858;2023-02-28T13:21:41;6.33;;;5.70;;
16822;SDS011;8528;49.976;11.858;2023-02-28T13:24:11;6.77;;;6.10;;
16822;SDS011;8528;49.976;11.858;2023-02-28T13:27:10;8.33;;;6.03;;
16822;SDS011;8528;49.976;11.858;2023-02-28T13:29:51;6.23;;;5.17;;
16822;SDS011;8528;49.976;11.858;2023-02-28T13:32:20;6.10;;;5.50;;
16822;SDS011;8528;49.976;11.858;2023-02-28T13:39:51;9.27;;;5.73;;
16822;SDS011;8528;49.976;11.858;2023-02-28T13:48:16;7.57;;;6.27;;
16822;SDS011;8528;49.976;11.858;2023-02-28T13:50:21;7.47;;;6.10;;
16822;SDS011;8528;49.976;11.858;2023-02-28T13:55:49;6.73;;;6.03;;
16822;SDS011;8528;49.976;11.858;2023-02-28T14:04:12;7.33;;;5.30;;
16822;SDS011;8528;49.976;11.858;2023-02-28T14:06:51;7.00;;;5.53;;
16822;SDS011;8528;49.976;11.858;2023-02-28T14:09:23;7.00;;;5.90;;
16822;SDS011;8528;49.976;11.858;2023-02-28T14:11:52;7.07;;;6.03;;
16822;SDS011;8528;49.976;11.858;2023-02-28T14:17:01;8.87;;;6.17;;
16822;SDS011;8528;49.976;11.858;2023-02-28T14:19:31;8.77;;;6.33;;
16822;SDS011;8528;49.976;11.858;2023-02-28T14:24:59;14.43;;;6.53;;
16822;SDS011;8528;49.976;11.858;2023-02-28T14:28:10;8.90;;;6.27;;
16822;SDS011;8528;49.976;11.858;2023-02-28T14:38:42;9.77;;;7.13;;
16822;SDS011;8528;49.976;11.858;2023-02-28T14:41:18;8.30;;;6.40;;
16822;SDS011;8528;49.976;11.858;2023-02-28T14:44:19;11.50;;;6.60;;
16822;SDS011;8528;49.976;11.858;2023-02-28T14:46:49;11.93;;;8.00;;
16822;SDS011;8528;49.976;11.858;2023-02-28T14:52:29;10.07;;;6.97;;
16822;SDS011;8528;49.976;11.858;2023-02-28T14:54:57;9.10;;;6.63;;
16822;SDS011;8528;49.976;11.858;2023-02-28T14:57:33;10.67;;;7.60;;
16822;SDS011;8528;49.976;11.858;2023-02-28T15:02:43;9.83;;;7.63;;
16822;SDS011;8528;49.976;11.858;2023-02-28T15:07:37;12.97;;;6.87;;
16822;SDS011;8528;49.976;11.858;2023-02-28T15:12:39;10.17;;;6.97;;
16822;SDS011;8528;49.976;11.858;2023-02-28T15:15:14;9.30;;;6.93;;
16822;SDS011;8528;49.976;11.858;2023-02-28T15:17:46;9.17;;;7.50;;
16822;SDS011;8528;49.976;11.858;2023-02-28T15:20:19;10.83;;;7.73;;
16822;SDS011;8528;49.976;11.858;2023-02-28T15:22:47;10.00;;;7.57;;
16822;SDS011;8528;49.976;11.858;2023-02-28T15:25:18;10.37;;;7.00;;
16822;SDS011;8528;49.976;11.858;2023-02-28T15:27:52;11.50;;;7.30;;
16822;SDS011;8528;49.976;11.858;2023-02-28T15:30:23;15.33;;;6.90;;
16822;SDS011;8528;49.976;11.858;2023-02-28T15:35:39;10.43;;;7.23;;
16822;SDS011;8528;49.976;11.858;2023-02-28T15:38:22;11.70;;;7.73;;
16822;SDS011;8528;49.976;11.858;2023-02-28T15:40:56;9.97;;;7.50;;
16822;SDS011;8528;49.976;11.858;2023-02-28T15:43:28;11.37;;;7.20;;
16822;SDS011;8528;49.976;11.858;2023-02-28T15:46:00;11.03;;;7.07;;
16822;SDS011;8528;49.976;11.858;2023-02-28T15:51:07;12.60;;;7.03;;
16822;SDS011;8528;49.976;11.858;2023-02-28T15:53:39;10.37;;;6.77;;
16822;SDS011;8528;49.976;11.858;2023-02-28T15:56:22;11.43;;;7.17;;
16822;SDS011;8528;49.976;11.858;2023-02-28T15:58:54;9.37;;;6.83;;
16822;SDS011;8528;49.976;11.858;2023-02-28T16:01:33;10.00;;;6.83;;
16822;SDS011;8528;49.976;11.858;2023-02-28T16:04:05;11.77;;;7.33;;
16822;SDS011;8528;49.976;11.858;2023-02-28T16:09:09;10.00;;;6.97;;
16822;SDS011;8528;49.976;11.858;2023-02-28T16:11:38;9.77;;;6.47;;
16822;SDS011;8528;49.976;11.858;2023-02-28T16:14:25;12.93;;;6.83;;
16822;SDS011;8528;49.976;11.858;2023-02-28T16:16:54;9.90;;;6.47;;
16822;SDS011;8528;49.976;11.858;2023-02-28T16:19:23;12.20;;;6.73;;
16822;SDS011;8528;49.976;11.858;2023-02-28T16:21:50;8.83;;;6.50;;
16822;SDS011;8528;49.976;11.858;2023-02-28T16:24:17;10.73;;;7.10;;
16822;SDS011;8528;49.976;11.858;2023-02-28T16:26:48;9.80;;;6.70;;
16822;SDS011;8528;49.976;11.858;2023-02-28T16:29:27;10.53;;;6.83;;
16822;SDS011;8528;49.976;11.858;2023-02-28T16:31:57;12.20;;;7.37;;
16822;SDS011;8528;49.976;11.858;2023-02-28T16:34:25;12.47;;;7.43;;
16822;SDS011;8528;49.976;11.858;2023-02-28T16:36:52;10.23;;;6.63;;
16822;SDS011;8528;49.976;11.858;2023-02-28T16:39:19;13.57;;;7.70;;
16822;SDS011;8528;49.976;11.858;2023-02-28T16:41:49;9.27;;;6.53;;
16822;SDS011;8528;49.976;11.858;2023-02-28T16:46:52;11.27;;;6.93;;
16822;SDS011;8528;49.976;11.858;2023-02-28T16:49:19;11.23;;;6.97;;
16822;SDS011;8528;49.976;11.858;2023-02-28T16:51:46;13.90;;;9.23;;
16822;SDS011;8528;49.976;11.858;2023-02-28T16:54:13;11.90;;;7.60;;
16822;SDS011;8528;49.976;11.858;2023-02-28T16:56:42;13.07;;;8.13;;
16822;SDS011;8528;49.976;11.858;2023-02-28T16:59:12;12.70;;;8.10;;
16822;SDS011;8528;49.976;11.858;2023-02-28T17:01:40;10.40;;;7.53;;
16822;SDS011;8528;49.976;11.858;2023-02-28T17:04:08;16.83;;;10.87;;
16822;SDS011;8528;49.976;11.858;2023-02-28T17:06:36;16.60;;;9.70;;
16822;SDS011;8528;49.976;11.858;2023-02-28T17:09:04;12.60;;;8.63;;
16822;SDS011;8528;49.976;11.858;2023-02-28T17:11:30;12.43;;;8.47;;
16822;SDS011;8528;49.976;11.858;2023-02-28T17:13:59;14.27;;;8.03;;
16822;SDS011;8528;49.976;11.858;2023-02-28T17:16:28;14.37;;;10.07;;
16822;SDS011;8528;49.976;11.858;2023-02-28T17:18:57;15.47;;;9.30;;
16822;SDS011;8528;49.976;11.858;2023-02-28T17:21:28;13.57;;;9.43;;
16822;SDS011;8528;49.976;11.858;2023-02-28T17:23:55;18.33;;;10.60;;
16822;SDS011;8528;49.976;11.858;2023-02-28T17:26:22;19.10;;;11.00;;
16822;SDS011;8528;49.976;11.858;2023-02-28T17:28:51;19.97;;;12.37;;
16822;SDS011;8528;49.976;11.858;2023-02-28T17:31:20;20.93;;;12.47;;
16822;SDS011;8528;49.976;11.858;2023-02-28T17:33:47;13.37;;;8.27;;